SWA1495 KSAN-KLAS
Flight info
| Callsign | SWA1495 |
|---|---|
| Flight time | N/A |
| Altitude | 29000 |
| Route | PADRZ2 CHKNN SEBBY YELAH MISEN RNDRZ4 |
| Aircraft | B738/M-SDE2E3FGHIRWXY/LB1 |
Departure
| Time | 2026-04-25 04:49 |
|---|---|
| Airport | San Diego International Airport (KSAN) |
Arrival
| Time | N/A |
|---|---|
| Airport | Harry Reid International Airport (KLAS) |
| Time | Latitude | Longitude | Altitude | Speed | Heading |
|---|---|---|---|---|---|
| 2026-04-25 04:27 | 32.73295 | -117.20168 | 20 ft | 0 kts | 91° |
| 2026-04-25 04:36 | 32.73295 | -117.20169 | 20 ft | 1 kts | 91° |
| 2026-04-25 04:36 | 32.73294 | -117.20198 | 21 ft | 4 kts | 82° |
| 2026-04-25 04:37 | 32.73288 | -117.20228 | 24 ft | 4 kts | 62° |
| 2026-04-25 04:37 | 32.73272 | -117.20250 | 22 ft | 4 kts | 10° |
| 2026-04-25 04:37 | 32.73265 | -117.20251 | 20 ft | 0 kts | 350° |
| 2026-04-25 04:40 | 32.73270 | -117.20252 | 20 ft | 2 kts | 351° |
| 2026-04-25 04:41 | 32.73314 | -117.20257 | 21 ft | 10 kts | 349° |
| 2026-04-25 04:41 | 32.73393 | -117.20276 | 20 ft | 14 kts | 8° |
| 2026-04-25 04:41 | 32.73499 | -117.20241 | 23 ft | 17 kts | 17° |
| 2026-04-25 04:41 | 32.73537 | -117.20133 | 22 ft | 18 kts | 107° |
| 2026-04-25 04:42 | 32.73501 | -117.19985 | 24 ft | 19 kts | 105° |
| 2026-04-25 04:42 | 32.73468 | -117.19838 | 23 ft | 18 kts | 105° |
| 2026-04-25 04:42 | 32.73432 | -117.19698 | 22 ft | 17 kts | 108° |
| 2026-04-25 04:42 | 32.73399 | -117.19562 | 25 ft | 17 kts | 106° |
| 2026-04-25 04:43 | 32.73367 | -117.19433 | 22 ft | 16 kts | 106° |
| 2026-04-25 04:43 | 32.73331 | -117.19283 | 21 ft | 22 kts | 106° |
| 2026-04-25 04:43 | 32.73286 | -117.19102 | 23 ft | 23 kts | 105° |
| 2026-04-25 04:43 | 32.73244 | -117.18924 | 23 ft | 22 kts | 106° |
| 2026-04-25 04:44 | 32.73202 | -117.18751 | 35 ft | 22 kts | 105° |
| 2026-04-25 04:44 | 32.73162 | -117.18582 | 27 ft | 21 kts | 106° |
| 2026-04-25 04:44 | 32.73121 | -117.18419 | 27 ft | 20 kts | 107° |
| 2026-04-25 04:44 | 32.73083 | -117.18261 | 26 ft | 20 kts | 106° |
| 2026-04-25 04:45 | 32.73046 | -117.18108 | 23 ft | 19 kts | 106° |
| 2026-04-25 04:45 | 32.73009 | -117.17960 | 23 ft | 18 kts | 106° |
| 2026-04-25 04:45 | 32.72976 | -117.17816 | 21 ft | 18 kts | 105° |
| 2026-04-25 04:45 | 32.72952 | -117.17676 | 22 ft | 16 kts | 79° |
| 2026-04-25 04:46 | 32.72953 | -117.17670 | 22 ft | 0 kts | 75° |
| 2026-04-25 04:47 | 32.72982 | -117.17593 | 25 ft | 17 kts | 38° |
| 2026-04-25 04:48 | 32.73043 | -117.17673 | 23 ft | 17 kts | 283° |
| 2026-04-25 04:48 | 32.73138 | -117.18065 | 22 ft | 97 kts | 286° |
| 2026-04-25 04:48 | 32.73393 | -117.19184 | 26 ft | 182 kts | 283° |
| 2026-04-25 04:48 | 32.73793 | -117.20809 | 539 ft | 217 kts | 284° |
| 2026-04-25 04:49 | 32.74324 | -117.22613 | 1429 ft | 230 kts | 304° |
| 2026-04-25 04:49 | 32.75307 | -117.24234 | 1974 ft | 252 kts | 303° |
| 2026-04-25 04:49 | 32.76300 | -117.25802 | 2185 ft | 228 kts | 307° |
| 2026-04-25 04:49 | 32.77235 | -117.27280 | 2213 ft | 222 kts | 305° |
| 2026-04-25 04:50 | 32.78163 | -117.28820 | 2319 ft | 239 kts | 304° |
| 2026-04-25 04:50 | 32.79142 | -117.30493 | 2836 ft | 251 kts | 303° |
| 2026-04-25 04:50 | 32.80154 | -117.32210 | 3540 ft | 256 kts | 306° |
| 2026-04-25 04:50 | 32.81242 | -117.33900 | 4313 ft | 258 kts | 306° |
| 2026-04-25 04:51 | 32.82350 | -117.35594 | 5079 ft | 260 kts | 306° |
| 2026-04-25 04:51 | 32.83464 | -117.37301 | 5824 ft | 263 kts | 306° |
| 2026-04-25 04:51 | 32.84587 | -117.39029 | 6560 ft | 266 kts | 305° |
| 2026-04-25 04:51 | 32.85719 | -117.40775 | 7318 ft | 267 kts | 305° |
| 2026-04-25 04:52 | 32.86852 | -117.42528 | 8113 ft | 268 kts | 304° |
| 2026-04-25 04:52 | 32.87986 | -117.44286 | 8925 ft | 269 kts | 304° |
| 2026-04-25 04:52 | 32.89128 | -117.46059 | 9743 ft | 271 kts | 304° |
| 2026-04-25 04:52 | 32.89890 | -117.47243 | 10235 ft | 274 kts | 303° |
| 2026-04-25 04:53 | 32.91090 | -117.49114 | 10494 ft | 297 kts | 303° |